createdAt,value
2023-04-06T00:00:55.020Z,63.91
2023-04-06T00:03:21.759Z,64.37
2023-04-06T00:05:49.106Z,64.47
2023-04-06T00:08:15.876Z,64.83
2023-04-06T00:10:42.726Z,65.31
2023-04-06T00:13:09.408Z,65.45
2023-04-06T00:15:36.376Z,65.63
2023-04-06T00:18:03.747Z,65.64
2023-04-06T00:20:30.663Z,65.88
2023-04-06T00:22:57.420Z,66.09
2023-04-06T00:25:24.122Z,66.18
2023-04-06T00:27:51.692Z,66.51
2023-04-06T00:30:18.754Z,66.47
2023-04-06T00:32:45.595Z,66.63
2023-04-06T00:35:12.329Z,66.97
2023-04-06T00:37:39.061Z,66.74
2023-04-06T00:40:06.644Z,66.50
2023-04-06T00:42:33.398Z,65.62
2023-04-06T00:45:00.964Z,66.50
2023-04-06T00:47:28.076Z,66.85
2023-04-06T00:49:55.541Z,66.72
2023-04-06T00:52:22.734Z,67.32
2023-04-06T00:54:51.054Z,67.23
2023-04-06T00:57:19.855Z,67.17
2023-04-06T00:59:49.361Z,67.16
2023-04-06T01:02:16.195Z,67.02
2023-04-06T01:04:48.123Z,66.69
2023-04-06T01:07:25.935Z,66.81
2023-04-06T01:10:07.462Z,66.74
2023-04-06T01:12:36.099Z,66.34
2023-04-06T01:15:07.787Z,66.18
2023-04-06T01:17:37.503Z,66.44
2023-04-06T01:20:10.977Z,66.01
2023-04-06T01:22:38.559Z,66.15
2023-04-06T01:25:05.645Z,66.13
2023-04-06T01:27:39.853Z,66.15
2023-04-06T01:30:12.504Z,65.82
2023-04-06T01:32:46.064Z,66.50
2023-04-06T01:35:15.619Z,66.21
2023-04-06T01:37:51.732Z,66.34
2023-04-06T01:40:24.890Z,66.59
2023-04-06T01:42:52.728Z,66.46
2023-04-06T01:45:27.805Z,66.54
2023-04-06T01:47:59.367Z,66.79
2023-04-06T01:50:27.885Z,66.50
2023-04-06T01:52:54.984Z,66.37
2023-04-06T01:55:22.754Z,65.99
2023-04-06T01:58:07.908Z,66.11
2023-04-06T02:00:38.542Z,66.19
2023-04-06T02:03:06.388Z,66.18
2023-04-06T02:05:38.841Z,66.53
2023-04-06T02:08:16.884Z,66.48
2023-04-06T02:10:43.618Z,66.17
2023-04-06T02:13:19.692Z,66.28
2023-04-06T02:15:50.778Z,66.33
2023-04-06T02:18:18.891Z,65.99
2023-04-06T02:20:46.280Z,66.21
2023-04-06T02:23:14.067Z,65.96
2023-04-06T02:25:41.305Z,65.57
2023-04-06T02:28:08.305Z,65.12
2023-04-06T02:30:35.731Z,65.16
2023-04-06T02:33:03.126Z,64.89
2023-04-06T02:35:37.192Z,64.67
2023-04-06T02:38:03.961Z,65.23
2023-04-06T02:40:30.742Z,65.07
2023-04-06T02:43:02.154Z,65.59
2023-04-06T02:45:31.995Z,65.67
2023-04-06T02:48:00.719Z,65.99
2023-04-06T02:50:28.074Z,65.56
2023-04-06T02:53:00.022Z,65.83
2023-04-06T02:55:27.128Z,65.63
2023-04-06T02:57:53.850Z,66.13
2023-04-06T03:00:25.721Z,66.14
2023-04-06T03:02:52.569Z,65.87
2023-04-06T03:05:19.705Z,65.96
2023-04-06T03:07:47.519Z,66.09
2023-04-06T03:10:21.976Z,66.13
2023-04-06T03:12:49.633Z,66.64
2023-04-06T03:15:21.669Z,66.51
2023-04-06T03:17:52.807Z,66.66
2023-04-06T03:20:32.007Z,66.72
2023-04-06T03:22:59.841Z,65.89
2023-04-06T03:25:31.327Z,66.15
2023-04-06T03:28:02.717Z,66.60
2023-04-06T03:30:32.545Z,66.89
2023-04-06T03:32:59.319Z,67.27
2023-04-06T03:35:29.138Z,66.93
2023-04-06T03:37:57.467Z,67.41
2023-04-06T03:40:24.606Z,67.62
2023-04-06T03:42:51.976Z,68.29
2023-04-06T03:45:18.889Z,68.01
2023-04-06T03:47:48.570Z,68.28
2023-04-06T03:50:15.541Z,68.24
2023-04-06T03:52:42.258Z,68.31
2023-04-06T03:55:09.331Z,67.76
2023-04-06T03:57:37.352Z,68.03
2023-04-06T04:00:04.665Z,68.37
2023-04-06T04:02:40.104Z,68.57
2023-04-06T04:05:07.351Z,68.78
2023-04-06T04:07:34.111Z,68.69
2023-04-06T04:10:01.797Z,68.78
2023-04-06T04:12:28.894Z,68.73
2023-04-06T04:14:57.440Z,69.01
2023-04-06T04:17:24.223Z,68.78
2023-04-06T04:19:50.942Z,68.55
2023-04-06T04:22:17.672Z,68.25
2023-04-06T04:24:44.633Z,68.20
2023-04-06T04:27:11.888Z,67.90
2023-04-06T04:29:40.141Z,68.60
2023-04-06T04:32:09.679Z,68.57
2023-04-06T04:34:36.897Z,67.52
2023-04-06T04:37:06.182Z,67.76
2023-04-06T04:39:45.990Z,68.04
2023-04-06T04:42:12.663Z,68.67
2023-04-06T04:44:45.040Z,68.69
2023-04-06T04:47:11.839Z,69.05
2023-04-06T04:49:44.016Z,68.79
2023-04-06T04:52:13.194Z,69.13
2023-04-06T04:54:52.174Z,69.00
2023-04-06T04:57:25.039Z,69.42
2023-04-06T04:59:52.144Z,69.62
2023-04-06T05:02:19.784Z,69.45
2023-04-06T05:05:07.141Z,69.34
2023-04-06T05:07:34.018Z,69.07
2023-04-06T05:10:01.641Z,69.27
2023-04-06T05:12:33.116Z,68.60
2023-04-06T05:15:05.993Z,68.80
2023-04-06T05:17:32.949Z,69.21
2023-04-06T05:19:59.899Z,69.13
2023-04-06T05:22:28.105Z,69.10
2023-04-06T05:25:03.990Z,69.21
2023-04-06T05:27:31.697Z,68.61
2023-04-06T05:30:01.462Z,68.56
2023-04-06T05:32:31.050Z,68.54
2023-04-06T05:34:58.163Z,67.87
2023-04-06T05:37:26.090Z,67.54
2023-04-06T05:39:53.065Z,67.79
2023-04-06T05:42:21.080Z,67.30
2023-04-06T05:44:56.954Z,66.70
2023-04-06T05:47:23.716Z,66.97
2023-04-06T05:49:58.384Z,66.50
2023-04-06T05:52:37.178Z,66.67
2023-04-06T05:55:04.650Z,66.63
2023-04-06T05:57:32.276Z,66.80
2023-04-06T05:59:58.974Z,66.62
2023-04-06T06:02:40.980Z,65.86
2023-04-06T06:05:11.785Z,66.29
2023-04-06T06:07:40.690Z,66.33
2023-04-06T06:10:08.208Z,65.54
2023-04-06T06:12:37.485Z,65.81
2023-04-06T06:15:04.699Z,65.63
2023-04-06T06:17:37.871Z,66.02
2023-04-06T06:20:07.998Z,65.77
2023-04-06T06:22:34.844Z,65.37
2023-04-06T06:25:02.503Z,65.14
2023-04-06T06:27:29.593Z,64.81
2023-04-06T06:29:56.578Z,64.66
2023-04-06T06:32:24.440Z,64.29
2023-04-06T06:34:53.101Z,64.48
2023-04-06T06:37:20.519Z,63.93
2023-04-06T06:39:48.138Z,64.46
2023-04-06T06:42:14.942Z,64.44
2023-04-06T06:44:57.197Z,63.81
2023-04-06T06:47:25.103Z,63.75
2023-04-06T06:49:51.827Z,63.49
2023-04-06T06:52:18.594Z,62.87
2023-04-06T06:54:45.301Z,62.81
2023-04-06T06:57:11.999Z,62.42
2023-04-06T06:59:38.741Z,62.56
2023-04-06T07:02:05.488Z,61.73
2023-04-06T07:04:32.248Z,61.63
2023-04-06T07:06:59.007Z,61.32
2023-04-06T07:09:27.692Z,60.14
2023-04-06T07:11:54.406Z,59.56
2023-04-06T07:14:21.104Z,59.15
2023-04-06T07:16:48.108Z,59.16
2023-04-06T07:19:15.787Z,58.90
2023-04-06T07:21:42.871Z,58.55
2023-04-06T07:24:09.746Z,58.15
2023-04-06T07:26:36.774Z,57.93
2023-04-06T07:29:05.179Z,57.51
2023-04-06T07:31:32.751Z,54.94
2023-04-06T07:33:59.942Z,55.98
2023-04-06T07:36:26.641Z,53.80
2023-04-06T07:38:53.406Z,53.62
2023-04-06T07:41:20.210Z,52.18
2023-04-06T07:43:47.240Z,51.52
2023-04-06T07:46:14.068Z,51.90
2023-04-06T07:48:40.965Z,50.23
2023-04-06T07:51:07.977Z,51.14
2023-04-06T07:53:38.669Z,50.44
2023-04-06T07:56:05.615Z,49.95
2023-04-06T07:58:32.449Z,50.08
2023-04-06T08:00:59.129Z,49.06
2023-04-06T08:03:26.850Z,49.45
2023-04-06T08:05:54.137Z,47.48
2023-04-06T08:08:22.336Z,46.76
2023-04-06T08:10:49.905Z,47.92
2023-04-06T08:13:17.308Z,48.27
2023-04-06T08:15:44.245Z,46.51
2023-04-06T08:18:11.423Z,47.59
2023-04-06T08:20:38.126Z,49.30
2023-04-06T08:23:05.311Z,45.99
2023-04-06T08:25:32.029Z,45.25
2023-04-06T08:27:58.772Z,42.40
2023-04-06T08:30:25.575Z,43.19
2023-04-06T08:32:52.661Z,43.29
2023-04-06T08:35:21.045Z,43.78
2023-04-06T08:37:49.279Z,45.47
2023-04-06T08:40:16.284Z,43.03
2023-04-06T08:42:48.228Z,46.02
2023-04-06T08:45:16.782Z,45.28
2023-04-06T08:47:43.771Z,44.34
2023-04-06T08:50:12.753Z,45.34
2023-04-06T08:52:40.494Z,43.65
2023-04-06T08:55:07.542Z,42.52
2023-04-06T08:57:34.786Z,42.81
2023-04-06T09:00:02.237Z,42.52
2023-04-06T09:02:29.091Z,41.54
2023-04-06T09:04:56.100Z,41.85
2023-04-06T09:07:23.011Z,42.45
2023-04-06T09:09:49.812Z,39.02
2023-04-06T09:12:31.812Z,40.76
2023-04-06T09:14:59.324Z,38.98
2023-04-06T09:17:27.631Z,39.02
2023-04-06T09:19:55.191Z,39.67
2023-04-06T09:22:21.878Z,38.21
2023-04-06T09:24:51.317Z,37.04
2023-04-06T09:27:18.626Z,39.14
2023-04-06T09:29:45.770Z,37.42
2023-04-06T09:32:13.114Z,39.53
2023-04-06T09:34:40.218Z,38.85
2023-04-06T09:37:17.636Z,38.64
2023-04-06T09:39:44.330Z,36.51
2023-04-06T09:42:11.317Z,37.50
2023-04-06T09:44:38.011Z,38.34
2023-04-06T09:47:08.613Z,38.17
2023-04-06T09:49:36.471Z,37.93
2023-04-06T09:52:04.746Z,36.86
2023-04-06T09:54:32.440Z,35.89
2023-04-06T09:57:22.390Z,37.13
2023-04-06T10:00:01.495Z,35.88
2023-04-06T10:02:34.895Z,35.37
2023-04-06T10:05:07.751Z,32.15
2023-04-06T10:07:37.170Z,33.79
2023-04-06T10:10:08.244Z,34.32
2023-04-06T10:12:34.933Z,33.04
2023-04-06T10:15:01.675Z,33.51
2023-04-06T10:17:28.378Z,32.03
2023-04-06T10:20:05.368Z,32.99
2023-04-06T10:22:38.036Z,31.46
2023-04-06T10:25:05.038Z,32.01
2023-04-06T10:27:32.281Z,31.18
2023-04-06T10:30:06.584Z,31.17
2023-04-06T10:32:37.472Z,30.57
2023-04-06T10:35:08.569Z,30.71
2023-04-06T10:38:02.145Z,29.47
2023-04-06T10:40:29.207Z,29.91
2023-04-06T10:42:56.990Z,31.63
2023-04-06T10:45:25.387Z,31.41
2023-04-06T10:47:55.461Z,29.80
2023-04-06T10:50:23.176Z,30.70
2023-04-06T10:53:03.820Z,30.50
2023-04-06T10:55:31.144Z,29.88
2023-04-06T10:57:57.867Z,30.61
2023-04-06T11:00:26.089Z,30.08
2023-04-06T11:03:01.157Z,32.67
2023-04-06T11:05:28.037Z,31.85
2023-04-06T11:07:54.973Z,31.19
2023-04-06T11:10:22.986Z,30.16
2023-04-06T11:12:55.747Z,29.64
2023-04-06T11:15:22.492Z,28.10
2023-04-06T11:17:50.364Z,27.81
2023-04-06T11:24:01.248Z,25.74
2023-04-06T11:26:27.984Z,24.17
2023-04-06T11:28:54.722Z,23.81
2023-04-06T11:31:26.728Z,22.53
2023-04-06T11:33:57.734Z,20.98
2023-04-06T11:36:24.791Z,21.47
2023-04-06T11:38:51.523Z,21.75
2023-04-06T11:41:18.211Z,24.32
2023-04-06T11:43:49.051Z,25.15
2023-04-06T11:46:19.211Z,26.39
2023-04-06T11:48:48.104Z,24.81
2023-04-06T11:51:22.906Z,24.46
2023-04-06T11:53:49.617Z,25.31
2023-04-06T11:56:26.712Z,25.26
2023-04-06T11:58:55.662Z,23.71
2023-04-06T12:01:22.584Z,24.19
2023-04-06T12:03:49.407Z,23.03
2023-04-06T12:06:16.825Z,25.23
2023-04-06T12:08:43.753Z,24.59
2023-04-06T12:11:10.431Z,22.66
2023-04-06T12:13:37.159Z,20.99
2023-04-06T12:16:03.950Z,20.66
2023-04-06T12:18:31.666Z,22.95
2023-04-06T12:20:58.399Z,20.80
2023-04-06T12:23:25.102Z,23.24
2023-04-06T12:25:52.051Z,23.32
2023-04-06T12:28:19.185Z,23.63
2023-04-06T12:30:45.933Z,23.08
2023-04-06T12:33:12.711Z,23.55
2023-04-06T12:35:40.029Z,23.49
2023-04-06T12:38:07.140Z,23.04
2023-04-06T12:40:37.930Z,22.89
2023-04-06T12:43:04.801Z,24.39
2023-04-06T12:45:32.623Z,24.19
2023-04-06T12:47:59.871Z,23.35
2023-04-06T12:50:27.665Z,24.03
2023-04-06T12:52:54.484Z,23.82
2023-04-06T12:55:22.673Z,22.84
2023-04-06T12:57:49.429Z,25.36
2023-04-06T13:00:16.833Z,24.86
2023-04-06T13:02:48.263Z,26.12
2023-04-06T13:05:19.639Z,25.71
2023-04-06T13:07:47.708Z,24.54
2023-04-06T13:10:14.607Z,24.50
2023-04-06T13:12:41.467Z,25.20
2023-04-06T13:15:08.610Z,25.01
2023-04-06T13:17:35.309Z,24.54
2023-04-06T13:20:02.126Z,26.38
2023-04-06T13:22:28.813Z,26.15
2023-04-06T13:24:55.800Z,25.45
2023-04-06T13:27:22.544Z,26.18
2023-04-06T13:29:49.272Z,26.46
2023-04-06T13:32:16.250Z,25.22
2023-04-06T13:34:46.092Z,24.98
2023-04-06T13:37:16.893Z,26.13
2023-04-06T13:39:44.182Z,25.46
2023-04-06T13:42:11.283Z,26.10
2023-04-06T13:44:38.020Z,28.51
2023-04-06T13:47:04.713Z,27.40
2023-04-06T13:49:31.495Z,26.50
2023-04-06T13:51:59.945Z,27.66
2023-04-06T13:54:27.714Z,28.16
2023-04-06T13:56:54.482Z,25.45
2023-04-06T13:59:21.156Z,25.26
2023-04-06T14:01:48.844Z,29.67
2023-04-06T14:04:15.839Z,24.52
2023-04-06T14:06:42.629Z,27.98
2023-04-06T14:09:09.357Z,28.84
2023-04-06T14:11:36.430Z,25.77
2023-04-06T14:14:03.369Z,26.02
2023-04-06T14:16:30.145Z,26.71
2023-04-06T14:18:59.117Z,24.51
2023-04-06T14:21:25.883Z,23.50
2023-04-06T14:23:53.690Z,25.70
2023-04-06T14:26:20.741Z,26.01
2023-04-06T14:28:47.673Z,23.82
2023-04-06T14:31:16.414Z,23.82
2023-04-06T14:33:43.805Z,23.57
2023-04-06T14:36:11.011Z,24.47
2023-04-06T14:38:37.948Z,24.14
2023-04-06T14:41:04.738Z,23.71
2023-04-06T14:43:34.182Z,27.96
2023-04-06T14:46:02.011Z,24.81
2023-04-06T14:48:29.179Z,25.78
2023-04-06T14:50:58.903Z,25.10
2023-04-06T14:53:25.737Z,22.80
2023-04-06T14:55:52.595Z,25.66
2023-04-06T14:58:20.752Z,24.70
2023-04-06T15:00:47.502Z,28.25
2023-04-06T15:03:14.992Z,25.00
2023-04-06T15:05:42.247Z,27.83
2023-04-06T15:08:10.721Z,25.38
2023-04-06T15:10:37.599Z,24.69
2023-04-06T15:13:04.356Z,25.03
2023-04-06T15:15:31.331Z,28.13
2023-04-06T15:17:58.160Z,29.13
2023-04-06T15:20:24.955Z,26.09
2023-04-06T15:22:51.759Z,27.44
2023-04-06T15:25:18.476Z,26.72
2023-04-06T15:27:45.445Z,28.76
2023-04-06T15:30:12.416Z,24.67
2023-04-06T15:32:39.146Z,25.85
2023-04-06T15:35:12.893Z,27.43
2023-04-06T15:37:39.864Z,25.83
2023-04-06T15:40:07.795Z,26.45
2023-04-06T15:42:34.490Z,26.60
2023-04-06T15:45:01.840Z,26.11
2023-04-06T15:47:28.661Z,28.75
2023-04-06T15:49:55.420Z,27.13
2023-04-06T15:52:23.077Z,25.37
2023-04-06T15:54:50.132Z,24.89
2023-04-06T15:57:16.835Z,26.86
2023-04-06T15:59:43.788Z,27.45
2023-04-06T16:02:10.625Z,27.07
2023-04-06T16:04:37.538Z,26.95
2023-04-06T16:07:04.572Z,27.98
2023-04-06T16:09:31.611Z,29.19
2023-04-06T16:11:58.341Z,29.18
2023-04-06T16:14:25.090Z,27.87
2023-04-06T16:16:51.984Z,27.96
2023-04-06T16:19:19.693Z,28.58
2023-04-06T16:21:46.404Z,27.85
2023-04-06T16:24:13.217Z,30.00
2023-04-06T16:26:40.736Z,29.47
2023-04-06T16:29:08.150Z,28.21
2023-04-06T16:31:34.942Z,30.34
2023-04-06T16:34:01.823Z,29.08
2023-04-06T16:36:30.224Z,29.84
2023-04-06T16:38:58.119Z,28.92
2023-04-06T16:41:25.717Z,30.52
2023-04-06T16:43:53.342Z,32.10
2023-04-06T16:46:20.199Z,30.93
2023-04-06T16:48:47.136Z,31.00
2023-04-06T16:51:16.119Z,30.38
2023-04-06T16:53:42.850Z,31.80
2023-04-06T16:58:37.930Z,29.96
2023-04-06T17:01:05.981Z,33.07
2023-04-06T17:03:34.213Z,32.02
2023-04-06T17:06:01.396Z,33.63
2023-04-06T17:08:28.119Z,34.05
2023-04-06T17:10:59.516Z,33.30
2023-04-06T17:13:29.528Z,33.62
2023-04-06T17:15:56.219Z,32.97
2023-04-06T17:18:23.051Z,33.29
2023-04-06T17:20:49.733Z,33.64
2023-04-06T17:23:16.839Z,32.63
2023-04-06T17:25:43.519Z,35.49
2023-04-06T17:28:10.243Z,35.07
2023-04-06T17:30:36.976Z,35.06
2023-04-06T17:33:03.728Z,35.56
2023-04-06T17:35:31.117Z,35.02
2023-04-06T17:37:57.795Z,33.83
2023-04-06T17:40:24.451Z,33.56
2023-04-06T17:42:51.303Z,34.01
2023-04-06T17:45:18.016Z,32.97
2023-04-06T17:47:44.909Z,33.83
2023-04-06T17:50:12.206Z,32.79
2023-04-06T17:52:38.976Z,32.52
2023-04-06T17:55:05.745Z,34.32
2023-04-06T17:57:32.412Z,33.98
2023-04-06T17:59:59.220Z,32.23
2023-04-06T18:02:26.206Z,32.75
2023-04-06T18:04:53.490Z,32.28
2023-04-06T18:07:20.391Z,31.98
2023-04-06T18:09:47.315Z,31.31
2023-04-06T18:12:14.075Z,32.36
2023-04-06T18:14:41.774Z,31.83
2023-04-06T18:17:08.522Z,31.94
2023-04-06T18:19:35.610Z,32.73
2023-04-06T18:22:02.367Z,32.76
2023-04-06T18:24:41.334Z,33.74
2023-04-06T18:27:09.668Z,34.54
2023-04-06T18:29:37.214Z,35.90
2023-04-06T18:32:05.128Z,34.57
2023-04-06T18:34:31.973Z,35.47
2023-04-06T18:37:00.144Z,36.04
2023-04-06T18:39:27.368Z,34.81
2023-04-06T18:41:54.097Z,36.33
2023-04-06T18:44:20.784Z,37.23
2023-04-06T18:46:47.556Z,37.03
2023-04-06T18:49:14.835Z,37.88
2023-04-06T18:51:43.075Z,39.38
2023-04-06T18:54:09.955Z,38.45
2023-04-06T18:56:38.552Z,40.11
2023-04-06T18:59:05.256Z,40.08
2023-04-06T19:01:33.070Z,39.02
2023-04-06T19:04:00.629Z,40.09
2023-04-06T19:06:28.131Z,39.57
2023-04-06T19:08:55.345Z,39.38
2023-04-06T19:11:25.287Z,38.91
2023-04-06T19:13:53.800Z,41.06
2023-04-06T19:16:20.816Z,40.50
2023-04-06T19:18:47.562Z,39.72
2023-04-06T19:21:14.939Z,38.21
2023-04-06T19:23:41.812Z,41.09
2023-04-06T19:26:11.361Z,41.27
2023-04-06T19:28:38.094Z,41.85
2023-04-06T19:31:08.463Z,41.19
2023-04-06T19:33:36.528Z,39.87
2023-04-06T19:36:04.197Z,40.57
2023-04-06T19:38:31.131Z,39.65
2023-04-06T19:40:57.813Z,41.12
2023-04-06T19:43:24.751Z,41.15
2023-04-06T19:45:51.838Z,40.13
2023-04-06T19:48:18.511Z,40.88
2023-04-06T19:50:45.964Z,40.00
2023-04-06T19:53:13.031Z,40.02
2023-04-06T19:55:39.760Z,39.15
2023-04-06T19:58:06.528Z,38.03
2023-04-06T20:00:33.306Z,38.74
2023-04-06T20:03:00.306Z,39.11
2023-04-06T20:05:27.219Z,39.71
2023-04-06T20:07:54.076Z,38.27
2023-04-06T20:10:20.960Z,38.99
2023-04-06T20:12:48.852Z,39.32
2023-04-06T20:15:15.745Z,39.66
2023-04-06T20:17:45.697Z,41.04
2023-04-06T20:20:12.459Z,39.54
2023-04-06T20:22:39.125Z,39.82
2023-04-06T20:25:06.791Z,38.70
2023-04-06T20:27:33.452Z,40.28
2023-04-06T20:30:00.212Z,40.63
2023-04-06T20:32:27.494Z,41.40
2023-04-06T20:34:54.364Z,41.33
2023-04-06T20:37:21.578Z,42.01
2023-04-06T20:39:48.540Z,41.79
2023-04-06T20:42:15.301Z,41.89
2023-04-06T20:44:42.311Z,41.26
2023-04-06T20:47:11.624Z,42.65
2023-04-06T20:49:38.335Z,41.56
2023-04-06T20:52:05.045Z,44.22
2023-04-06T20:54:31.777Z,44.41
2023-04-06T20:57:00.638Z,45.13
2023-04-06T20:59:27.945Z,45.17
2023-04-06T21:01:54.693Z,46.94
2023-04-06T21:04:23.105Z,46.92
2023-04-06T21:06:50.139Z,47.11
2023-04-06T21:09:17.394Z,47.79
2023-04-06T21:11:44.137Z,47.31
2023-04-06T21:14:11.111Z,47.98
2023-04-06T21:16:37.804Z,48.55
2023-04-06T21:19:04.633Z,48.96
2023-04-06T21:21:31.308Z,48.93
2023-04-06T21:23:58.626Z,49.63
2023-04-06T21:26:25.283Z,50.02
2023-04-06T21:28:51.968Z,49.83
2023-04-06T21:31:20.132Z,50.03
2023-04-06T21:33:47.161Z,49.70
2023-04-06T21:36:14.018Z,50.48
2023-04-06T21:38:41.079Z,51.18
2023-04-06T21:41:07.773Z,50.98
2023-04-06T21:43:34.803Z,49.67
2023-04-06T21:46:01.750Z,51.42
2023-04-06T21:48:28.604Z,54.48
2023-04-06T21:50:55.355Z,55.95
2023-04-06T21:53:22.208Z,56.99
2023-04-06T21:55:49.252Z,58.39
2023-04-06T21:58:16.142Z,59.36
2023-04-06T22:00:43.292Z,60.49
2023-04-06T22:03:10.520Z,60.94
2023-04-06T22:05:40.450Z,60.97
2023-04-06T22:08:09.540Z,62.41
2023-04-06T22:10:38.477Z,63.40
2023-04-06T22:13:05.206Z,63.90
2023-04-06T22:15:31.851Z,65.08
2023-04-06T22:17:59.235Z,66.17
2023-04-06T22:20:26.182Z,67.33
2023-04-06T22:22:52.897Z,67.29
2023-04-06T22:25:19.625Z,68.00
2023-04-06T22:27:46.293Z,69.10
2023-04-06T22:30:13.049Z,69.75
2023-04-06T22:32:39.764Z,68.97
2023-04-06T22:35:07.032Z,70.20
2023-04-06T22:37:33.814Z,69.64
2023-04-06T22:40:00.519Z,70.78
2023-04-06T22:42:27.254Z,72.03
2023-04-06T22:44:53.936Z,72.07
2023-04-06T22:47:20.656Z,72.86
2023-04-06T22:49:47.426Z,72.94
2023-04-06T22:52:14.180Z,73.43
2023-04-06T22:54:41.446Z,73.34
2023-04-06T22:57:08.128Z,73.40
2023-04-06T22:59:34.825Z,74.52
2023-04-06T23:02:01.628Z,74.23
2023-04-06T23:04:28.560Z,74.62
2023-04-06T23:06:55.341Z,74.59
2023-04-06T23:09:22.113Z,75.40
2023-04-06T23:11:49.676Z,75.83
2023-04-06T23:14:16.725Z,75.49
2023-04-06T23:16:43.581Z,76.21
2023-04-06T23:19:10.296Z,75.93
2023-04-06T23:21:37.159Z,75.41
2023-04-06T23:24:03.922Z,75.54
2023-04-06T23:26:30.718Z,75.33
2023-04-06T23:28:57.432Z,75.97
2023-04-06T23:31:24.179Z,76.34
2023-04-06T23:33:50.847Z,76.47
2023-04-06T23:36:17.504Z,76.26
2023-04-06T23:38:44.226Z,76.23
2023-04-06T23:41:14.415Z,76.31
2023-04-06T23:43:41.398Z,76.62
2023-04-06T23:46:08.752Z,76.43
2023-04-06T23:48:35.441Z,76.78
2023-04-06T23:51:02.140Z,76.61
2023-04-06T23:53:28.817Z,76.38
2023-04-06T23:55:55.627Z,76.18
2023-04-06T23:58:22.632Z,76.34
